sensor_id;sensor_type;location;lat;lon;timestamp;pressure;altitude;pressure_sealevel;temperature;humidity
25350;BME280;13302;48.796;11.978;2023-03-01T00:02:11;97517.19;;;5.12;28.48
25350;BME280;13302;48.796;11.978;2023-03-01T00:04:58;97515.28;;;5.13;28.40
25350;BME280;13302;48.796;11.978;2023-03-01T00:07:45;97521.28;;;5.15;28.52
25350;BME280;13302;48.796;11.978;2023-03-01T00:10:32;97521.78;;;5.17;28.35
25350;BME280;13302;48.796;11.978;2023-03-01T00:13:19;97514.69;;;5.16;28.40
25350;BME280;13302;48.796;11.978;2023-03-01T00:16:09;97519.34;;;5.15;28.35
25350;BME280;13302;48.796;11.978;2023-03-01T00:18:57;97520.47;;;5.14;28.27
25350;BME280;13302;48.796;11.978;2023-03-01T00:21:44;97515.59;;;5.11;28.51
25350;BME280;13302;48.796;11.978;2023-03-01T00:24:31;97520.53;;;5.09;28.51
25350;BME280;13302;48.796;11.978;2023-03-01T00:27:18;97517.50;;;5.11;28.62
25350;BME280;13302;48.796;11.978;2023-03-01T00:30:06;97521.66;;;5.08;28.54
25350;BME280;13302;48.796;11.978;2023-03-01T00:32:53;97510.19;;;5.06;28.60
25350;BME280;13302;48.796;11.978;2023-03-01T00:35:40;97505.31;;;5.03;28.44
25350;BME280;13302;48.796;11.978;2023-03-01T00:38:27;97514.63;;;5.02;28.75
25350;BME280;13302;48.796;11.978;2023-03-01T00:41:16;97501.00;;;4.97;28.74
25350;BME280;13302;48.796;11.978;2023-03-01T00:44:03;97512.25;;;4.95;28.67
25350;BME280;13302;48.796;11.978;2023-03-01T00:46:50;97517.25;;;4.93;28.90
25350;BME280;13302;48.796;11.978;2023-03-01T00:49:37;97511.22;;;4.91;28.74
25350;BME280;13302;48.796;11.978;2023-03-01T00:52:24;97511.84;;;4.88;28.86
25350;BME280;13302;48.796;11.978;2023-03-01T00:55:12;97511.00;;;4.88;28.93
25350;BME280;13302;48.796;11.978;2023-03-01T00:57:59;97511.84;;;4.88;28.86
25350;BME280;13302;48.796;11.978;2023-03-01T01:00:46;97501.97;;;4.87;28.97
25350;BME280;13302;48.796;11.978;2023-03-01T01:03:34;97492.72;;;4.83;28.94
25350;BME280;13302;48.796;11.978;2023-03-01T01:06:27;97487.03;;;4.80;29.09
25350;BME280;13302;48.796;11.978;2023-03-01T01:09:16;97488.97;;;4.79;29.13
25350;BME280;13302;48.796;11.978;2023-03-01T01:12:04;97488.19;;;4.79;28.89
25350;BME280;13302;48.796;11.978;2023-03-01T01:14:51;97487.34;;;4.78;28.94
25350;BME280;13302;48.796;11.978;2023-03-01T01:17:38;97487.66;;;4.77;29.08
25350;BME280;13302;48.796;11.978;2023-03-01T01:20:26;97484.09;;;4.76;28.97
25350;BME280;13302;48.796;11.978;2023-03-01T01:23:13;97483.81;;;4.78;29.09
25350;BME280;13302;48.796;11.978;2023-03-01T01:26:14;97482.16;;;4.77;29.03
25350;BME280;13302;48.796;11.978;2023-03-01T01:29:04;97475.88;;;4.76;29.00
25350;BME280;13302;48.796;11.978;2023-03-01T01:31:51;97468.47;;;4.77;28.98
25350;BME280;13302;48.796;11.978;2023-03-01T01:34:39;97478.59;;;4.76;28.91
25350;BME280;13302;48.796;11.978;2023-03-01T01:37:26;97471.50;;;4.75;28.96
25350;BME280;13302;48.796;11.978;2023-03-01T01:40:18;97470.72;;;4.75;29.25
25350;BME280;13302;48.796;11.978;2023-03-01T01:43:11;97472.09;;;4.72;28.91
25350;BME280;13302;48.796;11.978;2023-03-01T01:46:29;97467.44;;;4.73;29.04
25350;BME280;13302;48.796;11.978;2023-03-01T01:49:23;97458.13;;;4.74;29.19
25350;BME280;13302;48.796;11.978;2023-03-01T01:52:20;97452.94;;;4.72;29.02
25350;BME280;13302;48.796;11.978;2023-03-01T01:55:18;97452.41;;;4.70;28.98
25350;BME280;13302;48.796;11.978;2023-03-01T01:58:09;97450.19;;;4.72;28.93
25350;BME280;13302;48.796;11.978;2023-03-01T02:00:57;97453.75;;;4.73;29.06
25350;BME280;13302;48.796;11.978;2023-03-01T02:03:46;97448.53;;;4.71;28.94
25350;BME280;13302;48.796;11.978;2023-03-01T02:06:45;97433.81;;;4.67;28.94
25350;BME280;13302;48.796;11.978;2023-03-01T02:09:37;97433.81;;;4.67;29.09
25350;BME280;13302;48.796;11.978;2023-03-01T02:12:25;97439.28;;;4.67;28.92
25350;BME280;13302;48.796;11.978;2023-03-01T02:15:12;97432.69;;;4.68;29.08
25350;BME280;13302;48.796;11.978;2023-03-01T02:18:00;97431.06;;;4.67;28.98
25350;BME280;13302;48.796;11.978;2023-03-01T02:25:21;97437.22;;;4.59;29.19
25350;BME280;13302;48.796;11.978;2023-03-01T02:27:40;97422.22;;;4.56;28.98
25350;BME280;13302;48.796;11.978;2023-03-01T02:30:30;97430.72;;;4.55;29.10
25350;BME280;13302;48.796;11.978;2023-03-01T02:33:17;97434.88;;;4.52;29.03
25350;BME280;13302;48.796;11.978;2023-03-01T02:36:08;97433.03;;;4.48;29.10
25350;BME280;13302;48.796;11.978;2023-03-01T02:38:58;97432.81;;;4.44;29.08
25350;BME280;13302;48.796;11.978;2023-03-01T02:41:51;97425.50;;;4.40;29.10
25350;BME280;13302;48.796;11.978;2023-03-01T02:44:39;97426.91;;;4.37;29.14
25350;BME280;13302;48.796;11.978;2023-03-01T02:47:26;97428.63;;;4.33;29.19
25350;BME280;13302;48.796;11.978;2023-03-01T02:50:41;97417.50;;;4.25;29.17
25350;BME280;13302;48.796;11.978;2023-03-01T02:56:55;97417.44;;;4.11;29.23
25350;BME280;13302;48.796;11.978;2023-03-01T02:59:43;97419.66;;;4.09;29.50
25350;BME280;13302;48.796;11.978;2023-03-01T03:02:30;97407.91;;;4.08;29.56
25350;BME280;13302;48.796;11.978;2023-03-01T03:05:30;97408.19;;;4.07;29.52
25350;BME280;13302;48.796;11.978;2023-03-01T03:08:17;97406.56;;;4.06;29.58
25350;BME280;13302;48.796;11.978;2023-03-01T03:11:11;97403.31;;;4.04;29.59
25350;BME280;13302;48.796;11.978;2023-03-01T03:13:58;97399.84;;;3.98;29.53
25350;BME280;13302;48.796;11.978;2023-03-01T03:16:48;97392.81;;;3.92;29.54
25350;BME280;13302;48.796;11.978;2023-03-01T03:19:35;97392.56;;;3.89;29.72
25350;BME280;13302;48.796;11.978;2023-03-01T03:22:22;97395.69;;;3.82;29.76
25350;BME280;13302;48.796;11.978;2023-03-01T03:25:09;97400.66;;;3.80;29.68
25350;BME280;13302;48.796;11.978;2023-03-01T03:27:57;97399.59;;;3.76;29.67
25350;BME280;13302;48.796;11.978;2023-03-01T03:30:44;97395.53;;;3.74;29.78
25350;BME280;13302;48.796;11.978;2023-03-01T03:33:32;97390.88;;;3.74;29.86
25350;BME280;13302;48.796;11.978;2023-03-01T03:36:21;97395.31;;;3.70;29.76
25350;BME280;13302;48.796;11.978;2023-03-01T03:39:09;97388.19;;;3.69;29.74
25350;BME280;13302;48.796;11.978;2023-03-01T03:41:56;97380.59;;;3.66;29.70
25350;BME280;13302;48.796;11.978;2023-03-01T03:44:43;97386.66;;;3.63;29.77
25350;BME280;13302;48.796;11.978;2023-03-01T03:47:30;97385.31;;;3.60;29.91
25350;BME280;13302;48.796;11.978;2023-03-01T03:50:18;97384.84;;;3.53;29.88
25350;BME280;13302;48.796;11.978;2023-03-01T03:53:11;97386.31;;;3.46;29.72
25350;BME280;13302;48.796;11.978;2023-03-01T03:55:58;97382.81;;;3.40;30.03
25350;BME280;13302;48.796;11.978;2023-03-01T03:58:45;97380.19;;;3.35;30.12
25350;BME280;13302;48.796;11.978;2023-03-01T04:01:32;97384.06;;;3.29;30.13
25350;BME280;13302;48.796;11.978;2023-03-01T04:04:19;97384.66;;;3.26;30.22
25350;BME280;13302;48.796;11.978;2023-03-01T04:07:06;97375.91;;;3.24;30.20
25350;BME280;13302;48.796;11.978;2023-03-01T04:09:53;97382.47;;;3.23;30.13
25350;BME280;13302;48.796;11.978;2023-03-01T04:12:40;97376.78;;;3.19;30.35
25350;BME280;13302;48.796;11.978;2023-03-01T04:15:30;97371.38;;;3.14;30.25
25350;BME280;13302;48.796;11.978;2023-03-01T04:18:21;97370.88;;;3.07;30.22
25350;BME280;13302;48.796;11.978;2023-03-01T04:21:08;97375.28;;;3.03;30.11
25350;BME280;13302;48.796;11.978;2023-03-01T04:23:55;97370.41;;;3.00;30.44
25350;BME280;13302;48.796;11.978;2023-03-01T04:26:42;97361.69;;;2.98;30.64
25350;BME280;13302;48.796;11.978;2023-03-01T04:29:29;97357.63;;;2.96;30.25
25350;BME280;13302;48.796;11.978;2023-03-01T04:32:16;97361.78;;;2.93;30.47
25350;BME280;13302;48.796;11.978;2023-03-01T04:35:04;97366.19;;;2.89;30.54
25350;BME280;13302;48.796;11.978;2023-03-01T04:37:51;97359.34;;;2.87;30.60
25350;BME280;13302;48.796;11.978;2023-03-01T04:40:39;97364.31;;;2.85;30.66
25350;BME280;13302;48.796;11.978;2023-03-01T04:43:26;97350.94;;;2.83;30.63
25350;BME280;13302;48.796;11.978;2023-03-01T04:46:17;97362.41;;;2.85;30.59
25350;BME280;13302;48.796;11.978;2023-03-01T04:49:04;97360.19;;;2.87;30.65
25350;BME280;13302;48.796;11.978;2023-03-01T04:51:51;97363.72;;;2.88;30.50
25350;BME280;13302;48.796;11.978;2023-03-01T04:54:38;97365.34;;;2.89;30.42
25350;BME280;13302;48.796;11.978;2023-03-01T04:57:25;97366.47;;;2.88;30.45
25350;BME280;13302;48.796;11.978;2023-03-01T05:00:13;97366.47;;;2.88;30.63
25350;BME280;13302;48.796;11.978;2023-03-01T05:03:08;97366.22;;;2.84;30.62
25350;BME280;13302;48.796;11.978;2023-03-01T05:05:58;97364.59;;;2.83;30.58
25350;BME280;13302;48.796;11.978;2023-03-01T05:08:46;97367.31;;;2.83;30.58
25350;BME280;13302;48.796;11.978;2023-03-01T05:11:33;97367.31;;;2.83;30.81
25350;BME280;13302;48.796;11.978;2023-03-01T05:14:22;97354.47;;;2.84;30.47
25350;BME280;13302;48.796;11.978;2023-03-01T05:17:09;97355.81;;;2.86;30.50
25350;BME280;13302;48.796;11.978;2023-03-01T05:19:56;97350.34;;;2.86;30.62
25350;BME280;13302;48.796;11.978;2023-03-01T05:22:46;97353.91;;;2.87;30.50
25350;BME280;13302;48.796;11.978;2023-03-01T05:25:34;97352.84;;;2.83;30.70
25350;BME280;13302;48.796;11.978;2023-03-01T05:28:21;97359.13;;;2.83;30.61
25350;BME280;13302;48.796;11.978;2023-03-01T05:31:08;97356.41;;;2.83;30.45
25350;BME280;13302;48.796;11.978;2023-03-01T05:33:56;97357.50;;;2.82;30.32
25350;BME280;13302;48.796;11.978;2023-03-01T05:36:43;97355.66;;;2.77;30.41
25350;BME280;13302;48.796;11.978;2023-03-01T05:39:30;97356.22;;;2.74;30.38
25350;BME280;13302;48.796;11.978;2023-03-01T05:42:18;97362.25;;;2.71;30.45
25350;BME280;13302;48.796;11.978;2023-03-01T05:45:05;97359.28;;;2.68;30.31
25350;BME280;13302;48.796;11.978;2023-03-01T05:47:56;97351.38;;;2.66;30.37
25350;BME280;13302;48.796;11.978;2023-03-01T05:50:44;97360.97;;;2.64;30.45
25350;BME280;13302;48.796;11.978;2023-03-01T05:53:31;97363.16;;;2.62;30.48
25350;BME280;13302;48.796;11.978;2023-03-01T05:56:18;97361.00;;;2.59;30.55
25350;BME280;13302;48.796;11.978;2023-03-01T05:59:05;97352.03;;;2.53;30.60
25350;BME280;13302;48.796;11.978;2023-03-01T06:01:52;97353.72;;;2.49;30.59
25350;BME280;13302;48.796;11.978;2023-03-01T06:04:40;97358.13;;;2.45;30.70
25350;BME280;13302;48.796;11.978;2023-03-01T06:07:27;97361.16;;;2.44;30.73
25350;BME280;13302;48.796;11.978;2023-03-01T06:10:14;97359.00;;;2.41;30.77
25350;BME280;13302;48.796;11.978;2023-03-01T06:13:01;97353.81;;;2.39;30.94
25350;BME280;13302;48.796;11.978;2023-03-01T06:15:48;97356.00;;;2.37;30.96
25350;BME280;13302;48.796;11.978;2023-03-01T06:18:36;97354.41;;;2.36;30.96
25350;BME280;13302;48.796;11.978;2023-03-01T06:21:23;97354.41;;;2.36;31.07
25350;BME280;13302;48.796;11.978;2023-03-01T06:24:10;97351.38;;;2.38;31.10
25350;BME280;13302;48.796;11.978;2023-03-01T06:26:57;97355.75;;;2.39;31.22
25350;BME280;13302;48.796;11.978;2023-03-01T06:29:44;97354.34;;;2.41;31.22
25350;BME280;13302;48.796;11.978;2023-03-01T06:32:31;97359.53;;;2.43;31.36
25350;BME280;13302;48.796;11.978;2023-03-01T06:35:19;97360.84;;;2.45;31.35
25350;BME280;13302;48.796;11.978;2023-03-01T06:38:07;97363.25;;;2.52;31.31
25350;BME280;13302;48.796;11.978;2023-03-01T06:40:55;97361.88;;;2.54;31.36
25350;BME280;13302;48.796;11.978;2023-03-01T06:43:43;97358.84;;;2.56;31.37
25350;BME280;13302;48.796;11.978;2023-03-01T06:46:30;97363.22;;;2.57;31.63
25350;BME280;13302;48.796;11.978;2023-03-01T06:49:18;97358.84;;;2.56;31.57
25350;BME280;13302;48.796;11.978;2023-03-01T06:52:06;97353.69;;;2.54;31.52
25350;BME280;13302;48.796;11.978;2023-03-01T06:54:53;97351.75;;;2.55;31.52
25350;BME280;13302;48.796;11.978;2023-03-01T06:57:40;97356.66;;;2.58;31.44
25350;BME280;13302;48.796;11.978;2023-03-01T07:00:27;97349.22;;;2.63;31.58
25350;BME280;13302;48.796;11.978;2023-03-01T07:03:14;97347.28;;;2.69;31.46
25350;BME280;13302;48.796;11.978;2023-03-01T07:06:01;97340.13;;;2.73;31.44
25350;BME280;13302;48.796;11.978;2023-03-01T07:08:49;97359.72;;;2.80;31.39
25350;BME280;13302;48.796;11.978;2023-03-01T07:11:36;97347.34;;;2.88;31.21
25350;BME280;13302;48.796;11.978;2023-03-01T07:14:23;97348.34;;;2.97;31.35
25350;BME280;13302;48.796;11.978;2023-03-01T07:17:13;97353.97;;;3.05;31.33
25350;BME280;13302;48.796;11.978;2023-03-01T07:20:00;97349.25;;;3.11;31.17
25350;BME280;13302;48.796;11.978;2023-03-01T07:22:47;97355.53;;;3.16;31.05
25350;BME280;13302;48.796;11.978;2023-03-01T07:25:35;97360.06;;;3.26;31.13
25350;BME280;13302;48.796;11.978;2023-03-01T07:28:23;97348.75;;;3.33;30.98
25350;BME280;13302;48.796;11.978;2023-03-01T07:31:10;97363.69;;;3.40;30.79
25350;BME280;13302;48.796;11.978;2023-03-01T07:33:57;97346.97;;;3.47;30.81
25350;BME280;13302;48.796;11.978;2023-03-01T07:36:44;97347.69;;;3.52;30.92
25350;BME280;13302;48.796;11.978;2023-03-01T07:39:32;97350.88;;;3.59;30.68
25350;BME280;13302;48.796;11.978;2023-03-01T07:42:19;97348.06;;;3.64;30.75
25350;BME280;13302;48.796;11.978;2023-03-01T07:45:06;97343.63;;;3.68;30.68
25350;BME280;13302;48.796;11.978;2023-03-01T07:47:54;97341.94;;;3.73;30.70
25350;BME280;13302;48.796;11.978;2023-03-01T07:50:41;97338.31;;;3.77;30.63
25350;BME280;13302;48.796;11.978;2023-03-01T07:53:28;97342.63;;;3.83;30.54
25350;BME280;13302;48.796;11.978;2023-03-01T07:56:17;97343.13;;;3.85;30.55
25350;BME280;13302;48.796;11.978;2023-03-01T07:59:04;97343.66;;;3.87;30.58
25350;BME280;13302;48.796;11.978;2023-03-01T08:01:51;97334.91;;;3.85;30.26
25350;BME280;13302;48.796;11.978;2023-03-01T08:04:38;97345.84;;;3.85;30.30
25350;BME280;13302;48.796;11.978;2023-03-01T08:07:25;97343.66;;;3.87;30.40
25350;BME280;13302;48.796;11.978;2023-03-01T08:10:12;97332.41;;;3.89;30.30
25350;BME280;13302;48.796;11.978;2023-03-01T08:12:59;97335.66;;;3.91;30.47
25350;BME280;13302;48.796;11.978;2023-03-01T08:15:46;97333.16;;;3.94;30.32
25350;BME280;13302;48.796;11.978;2023-03-01T08:18:33;97335.00;;;3.99;30.44
25350;BME280;13302;48.796;11.978;2023-03-01T08:21:20;97334.41;;;4.02;30.31
25350;BME280;13302;48.796;11.978;2023-03-01T08:24:07;97333.00;;;4.04;30.36
25350;BME280;13302;48.796;11.978;2023-03-01T08:26:56;97334.03;;;4.08;30.28
25350;BME280;13302;48.796;11.978;2023-03-01T08:29:44;97329.88;;;4.11;30.02
25350;BME280;13302;48.796;11.978;2023-03-01T08:32:35;97330.69;;;4.11;30.36
25350;BME280;13302;48.796;11.978;2023-03-01T08:35:23;97322.72;;;4.15;30.07
25350;BME280;13302;48.796;11.978;2023-03-01T08:38:10;97318.53;;;4.18;30.15
25350;BME280;13302;48.796;11.978;2023-03-01T08:41:00;97316.34;;;4.20;29.98
25350;BME280;13302;48.796;11.978;2023-03-01T08:43:47;97309.44;;;4.22;29.90
25350;BME280;13302;48.796;11.978;2023-03-01T08:46:39;97309.44;;;4.22;30.14
25350;BME280;13302;48.796;11.978;2023-03-01T08:49:27;97303.69;;;4.24;30.09
25350;BME280;13302;48.796;11.978;2023-03-01T08:52:14;97305.31;;;4.25;29.93
25350;BME280;13302;48.796;11.978;2023-03-01T08:55:01;97304.19;;;4.26;30.15
25350;BME280;13302;48.796;11.978;2023-03-01T08:57:48;97301.69;;;4.29;30.35
25350;BME280;13302;48.796;11.978;2023-03-01T09:00:35;97305.44;;;4.33;30.07
25350;BME280;13302;48.796;11.978;2023-03-01T09:03:24;97292.78;;;4.37;29.96
25350;BME280;13302;48.796;11.978;2023-03-01T09:06:11;97292.09;;;4.45;29.99
25350;BME280;13302;48.796;11.978;2023-03-01T09:08:59;97293.81;;;4.55;29.98
25350;BME280;13302;48.796;11.978;2023-03-01T09:11:46;97284.09;;;4.62;29.59
25350;BME280;13302;48.796;11.978;2023-03-01T09:14:33;97281.25;;;4.68;29.53
25350;BME280;13302;48.796;11.978;2023-03-01T09:17:20;97273.50;;;4.75;29.58
25350;BME280;13302;48.796;11.978;2023-03-01T09:20:08;97274.22;;;4.80;29.46
25350;BME280;13302;48.796;11.978;2023-03-01T09:22:56;97262.53;;;4.88;29.50
25350;BME280;13302;48.796;11.978;2023-03-01T09:25:43;97264.91;;;4.95;29.33
25350;BME280;13302;48.796;11.978;2023-03-01T09:28:30;97265.91;;;4.99;29.17
25350;BME280;13302;48.796;11.978;2023-03-01T09:31:19;97262.56;;;5.02;29.14
25350;BME280;13302;48.796;11.978;2023-03-01T09:34:07;97264.88;;;5.08;29.12
25350;BME280;13302;48.796;11.978;2023-03-01T09:36:54;97272.69;;;5.15;29.03
25350;BME280;13302;48.796;11.978;2023-03-01T09:39:41;97257.94;;;5.25;29.04
25350;BME280;13302;48.796;11.978;2023-03-01T09:42:29;97273.66;;;5.33;29.13
25350;BME280;13302;48.796;11.978;2023-03-01T09:45:26;97261.50;;;5.39;28.99
25350;BME280;13302;48.796;11.978;2023-03-01T09:48:19;97260.25;;;5.45;28.92
25350;BME280;13302;48.796;11.978;2023-03-01T09:51:14;97259.94;;;5.46;28.78
25350;BME280;13302;48.796;11.978;2023-03-01T09:54:05;97259.84;;;5.51;28.95
25350;BME280;13302;48.796;11.978;2023-03-01T10:03:16;97250.16;;;5.68;28.99
25350;BME280;13302;48.796;11.978;2023-03-01T10:06:19;97251.03;;;5.77;28.85
25350;BME280;13302;48.796;11.978;2023-03-01T10:09:20;97242.25;;;5.88;28.75
25350;BME280;13302;48.796;11.978;2023-03-01T10:12:11;97238.75;;;5.96;28.68
25350;BME280;13302;48.796;11.978;2023-03-01T10:18:06;97227.03;;;6.05;28.78
25350;BME280;13302;48.796;11.978;2023-03-01T10:21:00;97222.84;;;6.07;28.61
25350;BME280;13302;48.796;11.978;2023-03-01T10:23:51;97213.69;;;6.12;28.59
25350;BME280;13302;48.796;11.978;2023-03-01T10:26:56;97217.44;;;6.16;28.54
25350;BME280;13302;48.796;11.978;2023-03-01T10:30:10;97214.25;;;6.22;28.60
25350;BME280;13302;48.796;11.978;2023-03-01T10:33:00;97209.94;;;6.30;28.37
25350;BME280;13302;48.796;11.978;2023-03-01T10:35:49;97210.13;;;6.33;28.36
25350;BME280;13302;48.796;11.978;2023-03-01T10:38:52;97206.44;;;6.38;28.16
25350;BME280;13302;48.796;11.978;2023-03-01T10:42:02;97206.91;;;6.40;28.47
25350;BME280;13302;48.796;11.978;2023-03-01T10:44:49;97204.84;;;6.45;28.15
25350;BME280;13302;48.796;11.978;2023-03-01T10:47:36;97200.50;;;6.53;28.24
25350;BME280;13302;48.796;11.978;2023-03-01T10:50:23;97203.44;;;6.57;28.33
25350;BME280;13302;48.796;11.978;2023-03-01T10:53:42;97186.13;;;6.56;28.46
25350;BME280;13302;48.796;11.978;2023-03-01T10:56:27;97182.13;;;6.62;28.34
25350;BME280;13302;48.796;11.978;2023-03-01T10:59:28;97186.03;;;6.70;28.38
25350;BME280;13302;48.796;11.978;2023-03-01T11:02:21;97177.97;;;6.73;28.10
25350;BME280;13302;48.796;11.978;2023-03-01T11:08:06;97167.34;;;6.89;28.30
25350;BME280;13302;48.796;11.978;2023-03-01T11:11:12;97165.09;;;6.91;28.13
25350;BME280;13302;48.796;11.978;2023-03-01T11:14:06;97152.03;;;6.97;28.08
25350;BME280;13302;48.796;11.978;2023-03-01T11:17:23;97147.97;;;7.03;28.16
25350;BME280;13302;48.796;11.978;2023-03-01T11:23:04;97138.78;;;7.16;28.06
25350;BME280;13302;48.796;11.978;2023-03-01T11:25:58;97131.16;;;7.21;28.08
25350;BME280;13302;48.796;11.978;2023-03-01T11:28:51;97122.75;;;7.26;27.80
25350;BME280;13302;48.796;11.978;2023-03-01T11:31:41;97120.66;;;7.32;27.88
25350;BME280;13302;48.796;11.978;2023-03-01T11:34:51;97117.78;;;7.37;27.57
25350;BME280;13302;48.796;11.978;2023-03-01T11:38:31;97114.38;;;7.40;27.59
25350;BME280;13302;48.796;11.978;2023-03-01T11:40:57;97104.66;;;7.43;27.43
25350;BME280;13302;48.796;11.978;2023-03-01T11:43:56;97104.03;;;7.46;27.47
25350;BME280;13302;48.796;11.978;2023-03-01T11:47:04;97099.97;;;7.43;27.57
25350;BME280;13302;48.796;11.978;2023-03-01T11:56:31;97079.09;;;7.51;27.37
25350;BME280;13302;48.796;11.978;2023-03-01T11:59:41;97073.59;;;7.51;27.50
25350;BME280;13302;48.796;11.978;2023-03-01T12:02:46;97067.47;;;7.54;27.31
25350;BME280;13302;48.796;11.978;2023-03-01T12:08:45;97070.03;;;7.59;27.27
25350;BME280;13302;48.796;11.978;2023-03-01T12:20:57;97045.75;;;7.69;27.20
25350;BME280;13302;48.796;11.978;2023-03-01T12:24:10;97051.25;;;7.69;27.32
25350;BME280;13302;48.796;11.978;2023-03-01T12:30:17;97040.53;;;7.76;27.42
25350;BME280;13302;48.796;11.978;2023-03-01T12:33:26;97041.31;;;7.86;27.21
25350;BME280;13302;48.796;11.978;2023-03-01T12:36:39;97028.50;;;7.90;27.47
25350;BME280;13302;48.796;11.978;2023-03-01T12:39:50;97026.41;;;7.95;27.35
25350;BME280;13302;48.796;11.978;2023-03-01T12:45:54;97027.50;;;8.03;27.27
25350;BME280;13302;48.796;11.978;2023-03-01T12:51:54;97013.84;;;8.15;27.17
25350;BME280;13302;48.796;11.978;2023-03-01T12:54:44;97010.09;;;8.19;27.24
25350;BME280;13302;48.796;11.978;2023-03-01T13:07:36;97003.00;;;8.39;26.94
25350;BME280;13302;48.796;11.978;2023-03-01T13:19:15;96998.91;;;8.45;27.01
25350;BME280;13302;48.796;11.978;2023-03-01T13:22:29;96994.34;;;8.49;27.05
25350;BME280;13302;48.796;11.978;2023-03-01T13:25:19;96993.03;;;8.55;26.90
25350;BME280;13302;48.796;11.978;2023-03-01T13:34:39;97006.75;;;8.64;26.85
25350;BME280;13302;48.796;11.978;2023-03-01T13:37:29;97008.38;;;8.65;26.87
25350;BME280;13302;48.796;11.978;2023-03-01T13:43:28;97010.47;;;8.68;26.96
25350;BME280;13302;48.796;11.978;2023-03-01T13:46:21;97004.75;;;8.73;26.81
25350;BME280;13302;48.796;11.978;2023-03-01T13:49:14;97005.22;;;8.75;26.98
25350;BME280;13302;48.796;11.978;2023-03-01T13:52:02;97009.72;;;8.80;26.87
25350;BME280;13302;48.796;11.978;2023-03-01T13:54:49;97004.34;;;8.83;26.71
25350;BME280;13302;48.796;11.978;2023-03-01T13:57:37;96992.63;;;8.86;26.64
25350;BME280;13302;48.796;11.978;2023-03-01T14:00:30;97000.25;;;8.89;26.73
25350;BME280;13302;48.796;11.978;2023-03-01T14:03:19;96996.34;;;8.90;26.85
25350;BME280;13302;48.796;11.978;2023-03-01T14:06:15;96998.09;;;8.95;26.63
25350;BME280;13302;48.796;11.978;2023-03-01T14:09:16;97002.94;;;8.98;26.82
25350;BME280;13302;48.796;11.978;2023-03-01T14:12:43;96995.44;;;8.98;26.62
25350;BME280;13302;48.796;11.978;2023-03-01T14:15:42;96995.13;;;9.00;26.68
25350;BME280;13302;48.796;11.978;2023-03-01T14:18:47;96986.84;;;9.00;26.90
25350;BME280;13302;48.796;11.978;2023-03-01T14:21:39;96989.75;;;9.03;26.74
25350;BME280;13302;48.796;11.978;2023-03-01T14:24:26;96982.28;;;9.04;26.75
25350;BME280;13302;48.796;11.978;2023-03-01T14:27:14;96985.97;;;9.08;26.92
25350;BME280;13302;48.796;11.978;2023-03-01T14:30:30;96979.44;;;9.12;26.71
25350;BME280;13302;48.796;11.978;2023-03-01T14:33:24;96982.31;;;9.16;26.63
25350;BME280;13302;48.796;11.978;2023-03-01T14:36:12;96982.81;;;9.18;26.74
25350;BME280;13302;48.796;11.978;2023-03-01T14:39:00;96976.13;;;9.19;26.68
25350;BME280;13302;48.796;11.978;2023-03-01T14:41:52;96971.09;;;9.21;26.76
25350;BME280;13302;48.796;11.978;2023-03-01T14:44:41;96965.25;;;9.23;26.45
25350;BME280;13302;48.796;11.978;2023-03-01T14:47:34;96960.06;;;9.21;26.59
25350;BME280;13302;48.796;11.978;2023-03-01T14:50:23;96964.75;;;9.20;26.83
25350;BME280;13302;48.796;11.978;2023-03-01T14:53:23;96965.09;;;9.19;26.62
25350;BME280;13302;48.796;11.978;2023-03-01T14:56:16;96955.22;;;9.18;26.68
25350;BME280;13302;48.796;11.978;2023-03-01T14:59:04;96954.88;;;9.19;26.74
25350;BME280;13302;48.796;11.978;2023-03-01T15:01:53;96965.09;;;9.19;26.70
25350;BME280;13302;48.796;11.978;2023-03-01T15:04:42;96963.16;;;9.19;26.85
25350;BME280;13302;48.796;11.978;2023-03-01T15:07:34;96961.19;;;9.20;27.04
25350;BME280;13302;48.796;11.978;2023-03-01T15:10:26;96952.91;;;9.20;26.83
25350;BME280;13302;48.796;11.978;2023-03-01T15:13:21;96948.22;;;9.20;26.88
25350;BME280;13302;48.796;11.978;2023-03-01T15:16:15;96953.03;;;9.23;26.72
25350;BME280;13302;48.796;11.978;2023-03-01T15:19:05;96941.69;;;9.25;26.90
25350;BME280;13302;48.796;11.978;2023-03-01T15:21:53;96940.53;;;9.26;27.04
25350;BME280;13302;48.796;11.978;2023-03-01T15:24:40;96944.88;;;9.27;26.79
25350;BME280;13302;48.796;11.978;2023-03-01T15:27:27;96938.22;;;9.28;26.70
25350;BME280;13302;48.796;11.978;2023-03-01T15:30:25;96937.41;;;9.28;26.92
25350;BME280;13302;48.796;11.978;2023-03-01T15:33:19;96941.69;;;9.25;26.71
25350;BME280;13302;48.796;11.978;2023-03-01T15:39:37;96938.00;;;9.21;26.78
25350;BME280;13302;48.796;11.978;2023-03-01T15:48:17;96940.50;;;9.14;26.89
25350;BME280;13302;48.796;11.978;2023-03-01T15:51:12;96943.59;;;9.12;26.98
25350;BME280;13302;48.796;11.978;2023-03-01T15:54:06;96940.84;;;9.12;27.04
25350;BME280;13302;48.796;11.978;2023-03-01T15:56:58;96938.41;;;9.11;26.98
25350;BME280;13302;48.796;11.978;2023-03-01T15:59:45;96941.53;;;9.09;27.25
25350;BME280;13302;48.796;11.978;2023-03-01T16:02:32;96947.38;;;9.08;27.03
25350;BME280;13302;48.796;11.978;2023-03-01T16:05:26;96951.25;;;9.07;26.98
25350;BME280;13302;48.796;11.978;2023-03-01T16:08:14;96944.59;;;9.08;27.10
25350;BME280;13302;48.796;11.978;2023-03-01T16:11:02;96945.75;;;9.07;27.26
25350;BME280;13302;48.796;11.978;2023-03-01T16:13:51;96947.13;;;9.01;27.17
25350;BME280;13302;48.796;11.978;2023-03-01T16:16:38;96946.19;;;8.97;27.03
25350;BME280;13302;48.796;11.978;2023-03-01T16:19:26;96949.63;;;8.94;27.09
25350;BME280;13302;48.796;11.978;2023-03-01T16:22:13;96942.34;;;8.89;27.12
25350;BME280;13302;48.796;11.978;2023-03-01T16:25:00;96943.00;;;8.86;27.08
25350;BME280;13302;48.796;11.978;2023-03-01T16:27:49;96942.06;;;8.82;27.08
25350;BME280;13302;48.796;11.978;2023-03-01T16:30:37;96945.50;;;8.79;27.25
25350;BME280;13302;48.796;11.978;2023-03-01T16:33:26;96940.31;;;8.77;27.41